createdAt,value
2018-05-23T00:00:06.507Z,14.53
2018-05-23T00:02:33.974Z,13.13
2018-05-23T00:05:01.391Z,10.60
2018-05-23T00:07:28.875Z,17.17
2018-05-23T00:09:56.326Z,13.70
2018-05-23T00:12:23.769Z,15.83
2018-05-23T00:14:51.215Z,19.07
2018-05-23T00:17:19.423Z,12.07
2018-05-23T00:19:46.863Z,20.90
2018-05-23T00:22:14.308Z,17.13
2018-05-23T00:24:42.521Z,20.10
2018-05-23T00:27:09.971Z,17.70
2018-05-23T00:29:37.423Z,14.50
2018-05-23T00:32:04.867Z,14.67
2018-05-23T00:34:32.313Z,11.70
2018-05-23T00:36:59.747Z,13.00
2018-05-23T00:39:27.184Z,25.77
2018-05-23T00:41:54.630Z,12.30
2018-05-23T00:44:22.075Z,12.77
2018-05-23T00:46:49.510Z,12.70
2018-05-23T00:49:16.962Z,9.83
2018-05-23T00:51:44.415Z,12.00
2018-05-23T00:54:11.856Z,11.63
2018-05-23T00:56:40.067Z,13.30
2018-05-23T00:59:07.516Z,15.60
2018-05-23T01:01:34.946Z,14.63
2018-05-23T01:04:03.157Z,24.83
2018-05-23T01:06:30.592Z,10.37
2018-05-23T01:08:58.023Z,11.27
2018-05-23T01:11:26.230Z,11.83
2018-05-23T01:13:53.692Z,12.00
2018-05-23T01:16:21.142Z,13.03
2018-05-23T01:18:48.591Z,10.00
2018-05-23T01:21:16.788Z,9.17
2018-05-23T01:23:44.991Z,9.37
2018-05-23T01:26:12.431Z,10.30
2018-05-23T01:28:40.639Z,17.43
2018-05-23T01:31:08.075Z,17.13
2018-05-23T01:33:35.516Z,28.10
2018-05-23T01:36:02.964Z,11.63
2018-05-23T01:38:30.407Z,15.77
2018-05-23T01:40:57.855Z,13.67
2018-05-23T01:43:25.291Z,14.27
2018-05-23T01:45:52.727Z,14.67
2018-05-23T01:48:20.167Z,12.47
2018-05-23T01:50:47.605Z,11.20
2018-05-23T01:53:15.055Z,20.57
2018-05-23T01:55:42.509Z,15.93
2018-05-23T01:58:09.944Z,14.47
2018-05-23T02:00:38.143Z,11.10
2018-05-23T02:03:05.599Z,22.03
2018-05-23T02:05:33.043Z,13.83
2018-05-23T02:08:00.488Z,27.47
2018-05-23T02:10:28.721Z,20.03
2018-05-23T02:12:56.160Z,23.57
2018-05-23T02:15:23.606Z,27.63
2018-05-23T02:17:51.044Z,14.27
2018-05-23T02:20:19.237Z,10.40
2018-05-23T02:22:46.675Z,28.70
2018-05-23T02:25:14.874Z,20.70
2018-05-23T02:27:42.314Z,18.17
2018-05-23T02:30:09.760Z,14.70
2018-05-23T02:32:37.961Z,15.67
2018-05-23T02:35:05.401Z,15.03
2018-05-23T02:37:32.847Z,15.13
2018-05-23T02:40:01.051Z,12.53
2018-05-23T02:42:28.502Z,18.47
2018-05-23T02:44:55.946Z,22.93
2018-05-23T02:47:23.388Z,12.20
2018-05-23T02:49:51.579Z,16.83
2018-05-23T02:52:19.018Z,17.80
2018-05-23T02:54:47.216Z,15.00
2018-05-23T02:57:14.647Z,10.00
2018-05-23T02:59:42.842Z,14.03
2018-05-23T03:02:10.291Z,12.13
2018-05-23T03:04:37.731Z,18.17
2018-05-23T03:07:05.937Z,12.13
2018-05-23T03:09:33.375Z,13.00
2018-05-23T03:12:01.580Z,29.27
2018-05-23T03:14:29.025Z,25.27
2018-05-23T03:16:56.466Z,21.83
2018-05-23T03:19:23.912Z,30.70
2018-05-23T03:21:52.115Z,18.57
2018-05-23T03:24:19.551Z,24.17
2018-05-23T03:26:47.760Z,25.93
2018-05-23T03:29:15.201Z,33.73
2018-05-23T03:31:42.640Z,47.23
2018-05-23T03:34:10.840Z,42.13
2018-05-23T03:36:38.271Z,23.60
2018-05-23T03:39:06.484Z,16.77
2018-05-23T03:41:33.926Z,18.73
2018-05-23T03:44:01.354Z,21.20
2018-05-23T03:46:29.584Z,20.97
2018-05-23T03:48:57.031Z,25.43
2018-05-23T03:51:24.477Z,23.53
2018-05-23T03:53:51.922Z,24.83
2018-05-23T03:56:19.363Z,24.90
2018-05-23T03:58:47.566Z,36.33
2018-05-23T04:01:26.838Z,45.83
2018-05-23T04:04:06.078Z,40.33
2018-05-23T04:06:45.407Z,76.80
2018-05-23T04:09:12.843Z,39.17
2018-05-23T04:11:40.303Z,38.57
2018-05-23T04:14:08.306Z,21.10
2018-05-23T04:16:35.738Z,23.77
2018-05-23T04:19:03.188Z,28.23
2018-05-23T04:21:30.628Z,32.97
2018-05-23T04:23:58.072Z,21.73
2018-05-23T04:26:25.498Z,25.30
2018-05-23T04:28:53.715Z,26.73
2018-05-23T04:31:21.153Z,23.30
2018-05-23T04:33:48.595Z,26.23
2018-05-23T04:36:16.791Z,26.40
2018-05-23T04:38:44.230Z,25.10
2018-05-23T04:41:12.432Z,21.47
2018-05-23T04:43:39.870Z,18.77
2018-05-23T04:46:07.294Z,22.53
2018-05-23T04:48:34.739Z,18.07
2018-05-23T04:51:02.176Z,16.77
2018-05-23T04:53:29.628Z,15.17
2018-05-23T04:55:57.063Z,15.13
2018-05-23T04:58:24.511Z,13.37
2018-05-23T05:00:51.951Z,14.70
2018-05-23T05:03:20.173Z,22.43
2018-05-23T05:05:47.620Z,19.03
2018-05-23T05:08:15.063Z,21.53
2018-05-23T05:10:42.490Z,20.27
2018-05-23T05:13:10.712Z,26.00
2018-05-23T05:15:38.149Z,21.23
2018-05-23T05:18:05.595Z,23.23
2018-05-23T05:20:33.796Z,16.27
2018-05-23T05:23:01.256Z,18.43
2018-05-23T05:25:28.695Z,17.80
2018-05-23T05:27:56.127Z,17.50
2018-05-23T05:30:24.349Z,14.97
2018-05-23T05:32:51.791Z,25.17
2018-05-23T05:35:19.232Z,26.03
2018-05-23T05:37:46.661Z,18.17
2018-05-23T05:40:14.111Z,15.70
2018-05-23T05:42:41.548Z,26.17
2018-05-23T05:45:08.983Z,23.20
2018-05-23T05:47:36.435Z,13.00
2018-05-23T05:50:03.867Z,14.80
2018-05-23T05:52:32.076Z,13.47
2018-05-23T05:54:59.527Z,13.37
2018-05-23T05:57:26.959Z,18.60
2018-05-23T05:59:54.409Z,14.17
2018-05-23T06:02:22.612Z,12.47
2018-05-23T06:04:50.046Z,12.63
2018-05-23T06:07:17.498Z,12.60
2018-05-23T06:09:45.773Z,12.07
2018-05-23T06:12:13.919Z,12.60
2018-05-23T06:15:56.281Z,12.90
2018-05-23T06:18:23.706Z,12.70
2018-05-23T06:20:51.917Z,13.33
2018-05-23T06:23:19.346Z,13.70
2018-05-23T06:25:47.559Z,13.63
2018-05-23T06:28:14.999Z,13.43
2018-05-23T06:30:42.439Z,13.17
2018-05-23T06:33:10.640Z,12.47
2018-05-23T06:35:38.082Z,13.73
2018-05-23T06:38:05.516Z,13.47
2018-05-23T06:40:33.737Z,14.07
2018-05-23T06:43:01.175Z,14.13
2018-05-23T06:45:28.612Z,14.27
2018-05-23T06:47:56.812Z,14.30
2018-05-23T06:50:24.251Z,15.40
2018-05-23T06:52:52.455Z,15.33
2018-05-23T06:55:19.901Z,13.97
2018-05-23T06:57:47.331Z,14.83
2018-05-23T07:00:15.544Z,14.70
2018-05-23T07:02:42.980Z,15.63
2018-05-23T07:05:10.437Z,16.90
2018-05-23T07:07:37.858Z,15.33
2018-05-23T07:10:05.299Z,16.83
2018-05-23T07:12:35.317Z,18.77
2018-05-23T07:15:02.746Z,13.43
2018-05-23T07:17:30.231Z,13.93
2018-05-23T07:19:57.685Z,14.17
2018-05-23T07:22:25.108Z,14.00
2018-05-23T07:24:52.551Z,12.67
2018-05-23T07:27:19.997Z,13.47
2018-05-23T07:29:48.186Z,13.53
2018-05-23T07:32:15.637Z,12.43
2018-05-23T07:34:43.072Z,16.23
2018-05-23T07:37:11.280Z,15.57
2018-05-23T07:39:38.715Z,15.33
2018-05-23T07:42:06.936Z,11.93
2018-05-23T07:44:34.361Z,13.87
2018-05-23T07:47:01.798Z,12.80
2018-05-23T07:49:30.002Z,15.43
2018-05-23T07:51:57.451Z,12.87
2018-05-23T07:54:24.901Z,13.63
2018-05-23T07:56:53.098Z,13.90
2018-05-23T07:59:20.527Z,14.60
2018-05-23T08:01:48.726Z,13.53
2018-05-23T08:04:16.171Z,14.47
2018-05-23T08:06:43.655Z,14.23
2018-05-23T08:09:11.090Z,15.97
2018-05-23T08:11:38.572Z,13.33
2018-05-23T08:14:06.006Z,15.27
2018-05-23T08:16:33.440Z,13.93
2018-05-23T08:19:01.655Z,14.20
2018-05-23T08:21:29.078Z,12.97
2018-05-23T08:23:56.535Z,13.33
2018-05-23T08:26:24.735Z,12.00
2018-05-23T08:28:52.174Z,11.60
2018-05-23T08:31:19.631Z,11.77
2018-05-23T08:33:47.084Z,13.53
2018-05-23T08:36:15.299Z,11.70
2018-05-23T08:38:42.729Z,13.20
2018-05-23T08:41:10.229Z,12.57
2018-05-23T08:43:38.372Z,13.43
2018-05-23T08:46:05.908Z,13.87
2018-05-23T08:48:33.255Z,16.63
2018-05-23T08:51:01.461Z,12.07
2018-05-23T08:53:28.902Z,12.43
2018-05-23T08:55:56.334Z,12.03
2018-05-23T08:58:24.547Z,12.23
2018-05-23T09:00:51.988Z,12.53
2018-05-23T09:03:19.427Z,17.57
2018-05-23T09:05:47.623Z,13.33
2018-05-23T09:08:15.092Z,15.03
2018-05-23T09:10:42.522Z,17.10
2018-05-23T09:13:09.980Z,15.87
2018-05-23T09:15:38.187Z,16.63
2018-05-23T09:18:06.392Z,13.60
2018-05-23T09:20:33.836Z,13.93
2018-05-23T09:23:02.096Z,16.97
2018-05-23T09:25:29.533Z,14.37
2018-05-23T09:27:56.969Z,16.57
2018-05-23T09:30:25.172Z,17.83
2018-05-23T09:32:52.616Z,14.60
2018-05-23T09:35:20.059Z,18.47
2018-05-23T09:37:48.268Z,14.17
2018-05-23T09:40:15.705Z,13.37
2018-05-23T09:42:43.149Z,14.93
2018-05-23T09:45:11.433Z,15.43
2018-05-23T09:47:38.791Z,15.00
2018-05-23T09:50:06.292Z,13.47
2018-05-23T09:52:33.735Z,15.60
2018-05-23T09:55:01.299Z,14.03
2018-05-23T09:57:28.628Z,14.13
2018-05-23T09:59:56.071Z,15.37
2018-05-23T10:02:24.271Z,17.07
2018-05-23T10:04:51.710Z,14.53
2018-05-23T10:07:19.141Z,15.50
2018-05-23T10:09:47.358Z,14.77
2018-05-23T10:12:14.799Z,18.30
2018-05-23T10:14:42.249Z,13.97
2018-05-23T10:17:10.451Z,17.13
2018-05-23T10:19:37.887Z,18.57
2018-05-23T10:22:05.324Z,18.23
2018-05-23T10:24:33.522Z,15.40
2018-05-23T10:27:00.960Z,15.00
2018-05-23T10:29:30.079Z,16.07
2018-05-23T10:31:57.515Z,13.53
2018-05-23T10:34:25.755Z,13.30
2018-05-23T10:36:53.179Z,17.17
2018-05-23T10:39:21.108Z,14.80
2018-05-23T10:41:48.625Z,13.40
2018-05-23T10:44:16.083Z,13.13
2018-05-23T10:46:44.531Z,13.33
2018-05-23T10:49:12.752Z,14.67
2018-05-23T10:51:40.318Z,12.83
2018-05-23T10:56:36.371Z,15.85
